PGT750 LTFJ-DAAG
Flight info
| Callsign | PGT750 |
|---|---|
| Flight time | 3h 6m |
| Altitude | 34000 |
| Route | BARPE UG12 GOLDO DCT IDILO UM603 TSL UM600 PIKOS DCT LATAN DCT MARON DCT SONAK DCT MORJA UA411 BJA |
| Aircraft | A320/M-SDE3FGHIRWY/LB1 |
Departure
| Time | 2026-04-28 17:10 |
|---|---|
| Airport | Istanbul Sabiha Gökçen International Airport (LTFJ) |
Arrival
| Time | 2026-04-28 20:16 |
|---|---|
| Airport | Houari Boumediene Airport (DAAG) |
| Time | Latitude | Longitude | Altitude | Speed | Heading |
|---|---|---|---|---|---|
| 2026-04-28 16:33 | 40.90681 | 29.31759 | 321 ft | 0 kts | 334° |
| 2026-04-28 17:00 | 40.90679 | 29.31761 | 321 ft | 2 kts | 334° |
| 2026-04-28 17:00 | 40.90655 | 29.31776 | 321 ft | 4 kts | 334° |
| 2026-04-28 17:00 | 40.90631 | 29.31792 | 319 ft | 4 kts | 334° |
| 2026-04-28 17:01 | 40.90607 | 29.31808 | 320 ft | 4 kts | 321° |
| 2026-04-28 17:01 | 40.90596 | 29.31833 | 318 ft | 4 kts | 254° |
| 2026-04-28 17:01 | 40.90607 | 29.31864 | 319 ft | 3 kts | 243° |
| 2026-04-28 17:01 | 40.90608 | 29.31867 | 319 ft | 0 kts | 243° |
| 2026-04-28 17:03 | 40.90604 | 29.31855 | 319 ft | 8 kts | 243° |
| 2026-04-28 17:04 | 40.90537 | 29.31675 | 320 ft | 12 kts | 244° |
| 2026-04-28 17:04 | 40.90484 | 29.31531 | 321 ft | 19 kts | 243° |
| 2026-04-28 17:05 | 40.90363 | 29.31202 | 321 ft | 21 kts | 244° |
| 2026-04-28 17:05 | 40.90302 | 29.31037 | 321 ft | 18 kts | 244° |
| 2026-04-28 17:05 | 40.90240 | 29.30888 | 321 ft | 17 kts | 218° |
| 2026-04-28 17:06 | 40.90067 | 29.30897 | 319 ft | 18 kts | 239° |
| 2026-04-28 17:06 | 40.90003 | 29.30748 | 321 ft | 19 kts | 242° |
| 2026-04-28 17:06 | 40.89883 | 29.30423 | 320 ft | 20 kts | 245° |
| 2026-04-28 17:07 | 40.89820 | 29.30251 | 319 ft | 21 kts | 244° |
| 2026-04-28 17:07 | 40.89757 | 29.30081 | 321 ft | 20 kts | 244° |
| 2026-04-28 17:07 | 40.89694 | 29.29911 | 321 ft | 21 kts | 244° |
| 2026-04-28 17:07 | 40.89630 | 29.29736 | 320 ft | 21 kts | 244° |
| 2026-04-28 17:08 | 40.89565 | 29.29556 | 319 ft | 22 kts | 244° |
| 2026-04-28 17:08 | 40.89499 | 29.29377 | 321 ft | 18 kts | 244° |
| 2026-04-28 17:08 | 40.89434 | 29.29257 | 320 ft | 14 kts | 191° |
| 2026-04-28 17:08 | 40.89341 | 29.29284 | 320 ft | 14 kts | 155° |
| 2026-04-28 17:09 | 40.89286 | 29.29359 | 322 ft | 10 kts | 87° |
| 2026-04-28 17:09 | 40.89310 | 29.29437 | 321 ft | 8 kts | 65° |
| 2026-04-28 17:09 | 40.89342 | 29.29523 | 321 ft | 23 kts | 64° |
| 2026-04-28 17:09 | 40.89523 | 29.30016 | 321 ft | 93 kts | 64° |
| 2026-04-28 17:10 | 40.89889 | 29.31015 | 318 ft | 146 kts | 64° |
| 2026-04-28 17:10 | 40.90397 | 29.32395 | 394 ft | 182 kts | 64° |
| 2026-04-28 17:10 | 40.90973 | 29.33922 | 995 ft | 185 kts | 64° |
| 2026-04-28 17:10 | 40.91547 | 29.35480 | 1410 ft | 198 kts | 64° |
| 2026-04-28 17:11 | 40.92172 | 29.37189 | 1747 ft | 209 kts | 64° |
| 2026-04-28 17:11 | 40.92807 | 29.38928 | 2278 ft | 211 kts | 65° |
| 2026-04-28 17:11 | 40.93183 | 29.40790 | 2768 ft | 212 kts | 90° |
| 2026-04-28 17:11 | 40.92824 | 29.42674 | 3196 ft | 218 kts | 121° |
| 2026-04-28 17:12 | 40.91708 | 29.44095 | 3432 ft | 236 kts | 156° |
| 2026-04-28 17:12 | 40.90082 | 29.44454 | 3952 ft | 243 kts | 189° |
| 2026-04-28 17:12 | 40.88499 | 29.43674 | 4622 ft | 245 kts | 206° |
| 2026-04-28 17:12 | 40.87005 | 29.42573 | 5308 ft | 248 kts | 220° |
| 2026-04-28 17:13 | 40.85944 | 29.40789 | 5976 ft | 251 kts | 246° |
| 2026-04-28 17:13 | 40.85400 | 29.38592 | 6661 ft | 253 kts | 253° |
| 2026-04-28 17:13 | 40.85068 | 29.37111 | 7110 ft | 255 kts | 253° |
| 2026-04-28 17:13 | 40.84559 | 29.34827 | 7786 ft | 257 kts | 253° |
| 2026-04-28 17:14 | 40.84051 | 29.32547 | 8450 ft | 260 kts | 253° |
| 2026-04-28 17:14 | 40.83539 | 29.30247 | 9116 ft | 262 kts | 253° |
| 2026-04-28 17:14 | 40.83020 | 29.27924 | 9750 ft | 265 kts | 253° |
| 2026-04-28 17:14 | 40.82493 | 29.25581 | 10377 ft | 267 kts | 253° |
| 2026-04-28 17:15 | 40.81959 | 29.23216 | 10759 ft | 282 kts | 253° |
| 2026-04-28 17:15 | 40.81368 | 29.20600 | 10912 ft | 305 kts | 253° |
| 2026-04-28 17:15 | 40.80737 | 29.17816 | 11058 ft | 328 kts | 253° |
| 2026-04-28 17:15 | 40.80061 | 29.14839 | 11177 ft | 349 kts | 253° |
| 2026-04-28 17:16 | 40.79344 | 29.11690 | 11311 ft | 368 kts | 253° |
| 2026-04-28 17:16 | 40.78593 | 29.08392 | 11646 ft | 379 kts | 253° |
| 2026-04-28 17:16 | 40.77828 | 29.05039 | 12195 ft | 384 kts | 253° |
| 2026-04-28 17:16 | 40.77280 | 29.01580 | 12746 ft | 388 kts | 263° |
| 2026-04-28 17:17 | 40.77219 | 28.98015 | 13293 ft | 391 kts | 274° |
| 2026-04-28 17:17 | 40.77438 | 28.94423 | 13836 ft | 394 kts | 274° |
| 2026-04-28 17:17 | 40.77655 | 28.90806 | 14364 ft | 397 kts | 274° |
| 2026-04-28 17:17 | 40.77868 | 28.87164 | 14866 ft | 400 kts | 274° |
| 2026-04-28 17:18 | 40.78080 | 28.83539 | 15355 ft | 403 kts | 274° |
| 2026-04-28 17:18 | 40.78344 | 28.79799 | 15842 ft | 406 kts | 275° |
| 2026-04-28 17:18 | 40.78654 | 28.76085 | 16315 ft | 408 kts | 276° |
| 2026-04-28 17:18 | 40.78993 | 28.72352 | 16769 ft | 411 kts | 276° |
| 2026-04-28 17:19 | 40.79341 | 28.68594 | 17209 ft | 414 kts | 276° |
| 2026-04-28 17:19 | 40.79685 | 28.64807 | 17648 ft | 417 kts | 276° |
| 2026-04-28 17:19 | 40.80021 | 28.61000 | 18077 ft | 419 kts | 276° |
| 2026-04-28 17:19 | 40.80350 | 28.57166 | 18492 ft | 422 kts | 276° |
| 2026-04-28 17:20 | 40.80675 | 28.53312 | 18902 ft | 424 kts | 276° |
| 2026-04-28 17:20 | 40.80888 | 28.50742 | 19168 ft | 426 kts | 276° |
| 2026-04-28 17:20 | 40.81315 | 28.45521 | 19695 ft | 429 kts | 276° |
| 2026-04-28 17:20 | 40.81637 | 28.41591 | 20074 ft | 432 kts | 276° |
| 2026-04-28 17:21 | 40.81963 | 28.37644 | 20448 ft | 434 kts | 276° |
| 2026-04-28 17:21 | 40.82290 | 28.33670 | 20812 ft | 436 kts | 276° |
| 2026-04-28 17:21 | 40.82619 | 28.29677 | 21164 ft | 439 kts | 276° |
| 2026-04-28 17:22 | 40.83276 | 28.21630 | 21828 ft | 443 kts | 276° |
| 2026-04-28 17:22 | 40.83603 | 28.17575 | 22150 ft | 445 kts | 276° |
| 2026-04-28 17:22 | 40.83930 | 28.13504 | 22467 ft | 447 kts | 276° |
| 2026-04-28 17:23 | 40.84586 | 28.05300 | 23091 ft | 451 kts | 276° |
| 2026-04-28 17:23 | 40.84914 | 28.01169 | 23394 ft | 453 kts | 276° |
| 2026-04-28 17:23 | 40.85241 | 27.97020 | 23687 ft | 455 kts | 276° |
| 2026-04-28 17:23 | 40.85568 | 27.92851 | 23972 ft | 457 kts | 275° |
| 2026-04-28 17:24 | 40.85892 | 27.88664 | 24250 ft | 459 kts | 275° |
| 2026-04-28 17:24 | 40.86215 | 27.84466 | 24517 ft | 461 kts | 275° |
| 2026-04-28 17:24 | 40.86540 | 27.80245 | 24768 ft | 463 kts | 275° |
| 2026-04-28 17:24 | 40.86868 | 27.76007 | 25019 ft | 464 kts | 275° |
| 2026-04-28 17:25 | 40.87198 | 27.71755 | 25268 ft | 466 kts | 275° |
| 2026-04-28 17:25 | 40.87829 | 27.63205 | 25747 ft | 469 kts | 272° |
| 2026-04-28 17:25 | 40.87672 | 27.58899 | 25965 ft | 470 kts | 264° |
| 2026-04-28 17:26 | 40.87375 | 27.54589 | 26194 ft | 472 kts | 264° |
| 2026-04-28 17:26 | 40.86995 | 27.50279 | 26460 ft | 472 kts | 260° |
| 2026-04-28 17:26 | 40.86422 | 27.46015 | 26787 ft | 471 kts | 259° |
| 2026-04-28 17:26 | 40.85814 | 27.41764 | 27107 ft | 470 kts | 259° |
| 2026-04-28 17:27 | 40.85186 | 27.37532 | 27425 ft | 470 kts | 258° |
| 2026-04-28 17:27 | 40.84549 | 27.33306 | 27736 ft | 469 kts | 258° |
| 2026-04-28 17:27 | 40.83911 | 27.29079 | 28046 ft | 469 kts | 258° |
| 2026-04-28 17:27 | 40.83279 | 27.24862 | 28356 ft | 468 kts | 258° |
| 2026-04-28 17:28 | 40.82653 | 27.20650 | 28663 ft | 467 kts | 259° |
| 2026-04-28 17:28 | 40.81405 | 27.12243 | 29267 ft | 466 kts | 258° |
| 2026-04-28 17:28 | 40.80780 | 27.08049 | 29557 ft | 465 kts | 258° |
| 2026-04-28 17:29 | 40.80154 | 27.03861 | 29857 ft | 465 kts | 258° |
| 2026-04-28 17:29 | 40.79531 | 26.99679 | 30146 ft | 464 kts | 258° |
| 2026-04-28 17:29 | 40.78909 | 26.95500 | 30434 ft | 464 kts | 258° |
| 2026-04-28 17:30 | 40.77661 | 26.87166 | 30998 ft | 462 kts | 258° |
| 2026-04-28 17:30 | 40.76409 | 26.78858 | 31545 ft | 461 kts | 258° |
| 2026-04-28 17:30 | 40.75777 | 26.74714 | 31814 ft | 461 kts | 258° |
| 2026-04-28 17:31 | 40.75142 | 26.70572 | 32077 ft | 460 kts | 258° |
| 2026-04-28 17:31 | 40.73873 | 26.62310 | 32587 ft | 459 kts | 258° |
| 2026-04-28 17:32 | 40.72608 | 26.54060 | 33089 ft | 458 kts | 258° |
| 2026-04-28 17:32 | 40.71976 | 26.49944 | 33335 ft | 458 kts | 258° |
| 2026-04-28 17:32 | 40.71340 | 26.45835 | 33577 ft | 457 kts | 258° |
| 2026-04-28 17:32 | 40.70701 | 26.41730 | 33819 ft | 457 kts | 258° |
| 2026-04-28 17:33 | 40.70064 | 26.37629 | 33974 ft | 457 kts | 258° |
| 2026-04-28 17:33 | 40.69424 | 26.33512 | 34010 ft | 461 kts | 258° |
| 2026-04-28 17:33 | 40.68341 | 26.26569 | 34010 ft | 469 kts | 258° |
| 2026-04-28 17:34 | 40.66788 | 26.16698 | 34010 ft | 472 kts | 258° |
| 2026-04-28 17:34 | 40.65457 | 26.08244 | 34010 ft | 472 kts | 258° |
| 2026-04-28 17:35 | 40.64115 | 25.99778 | 34010 ft | 472 kts | 258° |
| 2026-04-28 17:35 | 40.62761 | 25.91318 | 34010 ft | 472 kts | 258° |
| 2026-04-28 17:36 | 40.61406 | 25.82867 | 34008 ft | 472 kts | 258° |
| 2026-04-28 17:36 | 40.60048 | 25.74416 | 34011 ft | 472 kts | 258° |
| 2026-04-28 17:37 | 40.58682 | 25.65971 | 34009 ft | 472 kts | 258° |
| 2026-04-28 17:37 | 40.57305 | 25.57530 | 34010 ft | 472 kts | 258° |
| 2026-04-28 17:38 | 40.55928 | 25.49096 | 34008 ft | 472 kts | 257° |
| 2026-04-28 17:38 | 40.54541 | 25.40665 | 34007 ft | 472 kts | 257° |
| 2026-04-28 17:39 | 40.53147 | 25.32242 | 34006 ft | 472 kts | 257° |
| 2026-04-28 17:40 | 40.51053 | 25.19608 | 34004 ft | 472 kts | 257° |
| 2026-04-28 17:40 | 40.49649 | 25.11186 | 34008 ft | 472 kts | 257° |
| 2026-04-28 17:41 | 40.48243 | 25.02760 | 34010 ft | 472 kts | 257° |
| 2026-04-28 17:41 | 40.46823 | 24.94342 | 34012 ft | 472 kts | 257° |
| 2026-04-28 17:42 | 40.45390 | 24.85926 | 34015 ft | 472 kts | 257° |
| 2026-04-28 17:42 | 40.43952 | 24.77518 | 34009 ft | 472 kts | 257° |
| 2026-04-28 17:43 | 40.42517 | 24.69112 | 34012 ft | 472 kts | 257° |
| 2026-04-28 17:43 | 40.41086 | 24.60708 | 34011 ft | 472 kts | 257° |
| 2026-04-28 17:44 | 40.39639 | 24.52307 | 34013 ft | 472 kts | 257° |
| 2026-04-28 17:44 | 40.38179 | 24.43910 | 34013 ft | 472 kts | 257° |
| 2026-04-28 17:45 | 40.36716 | 24.35519 | 34013 ft | 472 kts | 257° |
| 2026-04-28 17:45 | 40.35253 | 24.27137 | 34012 ft | 472 kts | 257° |
| 2026-04-28 17:46 | 40.33780 | 24.18755 | 34012 ft | 472 kts | 257° |
| 2026-04-28 17:46 | 40.32291 | 24.10378 | 34005 ft | 472 kts | 257° |
| 2026-04-28 17:47 | 40.30795 | 24.02004 | 34012 ft | 472 kts | 257° |
| 2026-04-28 17:47 | 40.29307 | 23.93631 | 34009 ft | 472 kts | 257° |
| 2026-04-28 17:48 | 40.27818 | 23.85258 | 34013 ft | 472 kts | 256° |
| 2026-04-28 17:48 | 40.26311 | 23.76892 | 34012 ft | 472 kts | 256° |
| 2026-04-28 17:49 | 40.24804 | 23.68537 | 34008 ft | 472 kts | 256° |
| 2026-04-28 17:49 | 40.23292 | 23.60185 | 34009 ft | 472 kts | 256° |
| 2026-04-28 17:50 | 40.21767 | 23.51835 | 34007 ft | 472 kts | 256° |
| 2026-04-28 17:50 | 40.20234 | 23.43483 | 34009 ft | 472 kts | 256° |
| 2026-04-28 17:51 | 40.18707 | 23.35144 | 34008 ft | 472 kts | 256° |
| 2026-04-28 17:51 | 40.17172 | 23.26801 | 34006 ft | 472 kts | 256° |
| 2026-04-28 17:52 | 40.15890 | 23.19877 | 34007 ft | 472 kts | 256° |
| 2026-04-28 17:52 | 40.13555 | 23.07391 | 34004 ft | 471 kts | 256° |
| 2026-04-28 17:53 | 40.11998 | 22.99071 | 34003 ft | 471 kts | 256° |
| 2026-04-28 17:53 | 40.10427 | 22.90695 | 34002 ft | 471 kts | 256° |
| 2026-04-28 17:54 | 40.08857 | 22.82385 | 34001 ft | 471 kts | 256° |
| 2026-04-28 17:54 | 40.07280 | 22.74080 | 34001 ft | 471 kts | 256° |
| 2026-04-28 17:55 | 40.05705 | 22.65772 | 34002 ft | 471 kts | 256° |
| 2026-04-28 17:55 | 40.04118 | 22.57466 | 34000 ft | 472 kts | 256° |
| 2026-04-28 17:56 | 40.02521 | 22.49165 | 34004 ft | 472 kts | 256° |
| 2026-04-28 17:56 | 40.00917 | 22.40869 | 34006 ft | 472 kts | 256° |
| 2026-04-28 17:57 | 39.99309 | 22.32568 | 34006 ft | 472 kts | 256° |
| 2026-04-28 17:57 | 39.97690 | 22.24276 | 34010 ft | 472 kts | 255° |
| 2026-04-28 17:58 | 39.96071 | 22.15982 | 34010 ft | 472 kts | 255° |
| 2026-04-28 17:58 | 39.94450 | 22.07696 | 34010 ft | 472 kts | 255° |
| 2026-04-28 17:59 | 39.92820 | 21.99408 | 34012 ft | 472 kts | 255° |
| 2026-04-28 17:59 | 39.91183 | 21.91128 | 34010 ft | 472 kts | 255° |
| 2026-04-28 18:00 | 39.89537 | 21.82848 | 34015 ft | 472 kts | 255° |
| 2026-04-28 18:00 | 39.87891 | 21.74574 | 34011 ft | 472 kts | 255° |
| 2026-04-28 18:01 | 39.86237 | 21.66313 | 34011 ft | 472 kts | 255° |
| 2026-04-28 18:01 | 39.84572 | 21.58050 | 34012 ft | 472 kts | 255° |
| 2026-04-28 18:02 | 39.82901 | 21.49799 | 34009 ft | 472 kts | 255° |
| 2026-04-28 18:02 | 39.81231 | 21.41554 | 34006 ft | 471 kts | 255° |
| 2026-04-28 18:03 | 39.79561 | 21.33312 | 34003 ft | 471 kts | 255° |
| 2026-04-28 18:03 | 39.77884 | 21.25074 | 34000 ft | 471 kts | 255° |
| 2026-04-28 18:04 | 39.76193 | 21.16843 | 34001 ft | 471 kts | 255° |
| 2026-04-28 18:04 | 39.74500 | 21.08614 | 33998 ft | 471 kts | 255° |
| 2026-04-28 18:05 | 39.73086 | 21.01774 | 34001 ft | 471 kts | 255° |
| 2026-04-28 18:05 | 39.71096 | 20.92166 | 34002 ft | 472 kts | 255° |
| 2026-04-28 18:06 | 39.69381 | 20.83940 | 34005 ft | 472 kts | 255° |
| 2026-04-28 18:06 | 39.67665 | 20.75723 | 34004 ft | 472 kts | 255° |
| 2026-04-28 18:07 | 39.65943 | 20.67494 | 34011 ft | 472 kts | 255° |
| 2026-04-28 18:07 | 39.64218 | 20.59282 | 34007 ft | 472 kts | 255° |
| 2026-04-28 18:08 | 39.62478 | 20.51073 | 34007 ft | 472 kts | 254° |
| 2026-04-28 18:08 | 39.60731 | 20.42868 | 34011 ft | 472 kts | 254° |
| 2026-04-28 18:09 | 39.58981 | 20.34661 | 34008 ft | 472 kts | 254° |
| 2026-04-28 18:09 | 39.57227 | 20.26459 | 34014 ft | 472 kts | 254° |
| 2026-04-28 18:10 | 39.55469 | 20.18257 | 34010 ft | 472 kts | 254° |
| 2026-04-28 18:10 | 39.53702 | 20.10061 | 34019 ft | 472 kts | 254° |
| 2026-04-28 18:11 | 39.51932 | 20.01869 | 34016 ft | 472 kts | 254° |
| 2026-04-28 18:11 | 39.50154 | 19.93687 | 34016 ft | 472 kts | 254° |
| 2026-04-28 18:12 | 39.48370 | 19.85500 | 34018 ft | 472 kts | 254° |
| 2026-04-28 18:12 | 39.46584 | 19.77322 | 34017 ft | 472 kts | 254° |
| 2026-04-28 18:13 | 39.44787 | 19.69148 | 34012 ft | 472 kts | 254° |
| 2026-04-28 18:13 | 39.42981 | 19.60978 | 34016 ft | 472 kts | 254° |
| 2026-04-28 18:14 | 39.41172 | 19.52812 | 34018 ft | 472 kts | 254° |
| 2026-04-28 18:14 | 39.39361 | 19.44655 | 34018 ft | 472 kts | 254° |
| 2026-04-28 18:15 | 39.37550 | 19.36507 | 34016 ft | 472 kts | 253° |
| 2026-04-28 18:15 | 39.35737 | 19.28363 | 34010 ft | 471 kts | 253° |
| 2026-04-28 18:16 | 39.33915 | 19.20220 | 34007 ft | 472 kts | 253° |
| 2026-04-28 18:16 | 39.32082 | 19.12093 | 34008 ft | 472 kts | 253° |
| 2026-04-28 18:17 | 39.30238 | 19.03963 | 34007 ft | 472 kts | 253° |
| 2026-04-28 18:17 | 39.27879 | 18.96088 | 34007 ft | 471 kts | 244° |
| 2026-04-28 18:18 | 39.25027 | 18.88471 | 34006 ft | 471 kts | 244° |
| 2026-04-28 18:18 | 39.22668 | 18.82134 | 34007 ft | 471 kts | 244° |
| 2026-04-28 18:19 | 39.19340 | 18.73231 | 34007 ft | 472 kts | 244° |
| 2026-04-28 18:19 | 39.16487 | 18.65618 | 34010 ft | 472 kts | 244° |
| 2026-04-28 18:20 | 39.13626 | 18.58010 | 34008 ft | 472 kts | 244° |
| 2026-04-28 18:20 | 39.10761 | 18.50403 | 34011 ft | 472 kts | 244° |
| 2026-04-28 18:21 | 39.07887 | 18.42799 | 34016 ft | 472 kts | 244° |
| 2026-04-28 18:21 | 39.05010 | 18.35208 | 34015 ft | 472 kts | 244° |
| 2026-04-28 18:22 | 39.02126 | 18.27629 | 34012 ft | 472 kts | 244° |
| 2026-04-28 18:22 | 38.99238 | 18.20053 | 34012 ft | 472 kts | 244° |
| 2026-04-28 18:23 | 38.96349 | 18.12480 | 34016 ft | 472 kts | 244° |
| 2026-04-28 18:23 | 38.94908 | 18.08711 | 34449 ft | 461 kts | 246° |
| 2026-04-28 18:23 | 38.93522 | 18.05108 | 35352 ft | 442 kts | 246° |
| 2026-04-28 18:24 | 38.92180 | 18.01638 | 36241 ft | 425 kts | 246° |
| 2026-04-28 18:24 | 38.91320 | 17.99422 | 36826 ft | 413 kts | 247° |
| 2026-04-28 18:24 | 38.89642 | 17.95131 | 38012 ft | 390 kts | 247° |
| 2026-04-28 18:24 | 38.88445 | 17.92094 | 38830 ft | 373 kts | 247° |
| 2026-04-28 18:25 | 38.87292 | 17.89193 | 39465 ft | 356 kts | 247° |
| 2026-04-28 18:25 | 38.86188 | 17.86441 | 40048 ft | 339 kts | 247° |
| 2026-04-28 18:25 | 38.85121 | 17.83804 | 40437 ft | 329 kts | 247° |
| 2026-04-28 18:26 | 38.82963 | 17.78459 | 39826 ft | 351 kts | 247° |
| 2026-04-28 18:26 | 38.81836 | 17.75642 | 39695 ft | 355 kts | 247° |
| 2026-04-28 18:26 | 38.80722 | 17.72865 | 40056 ft | 344 kts | 247° |
| 2026-04-28 18:26 | 38.79642 | 17.70192 | 40458 ft | 333 kts | 247° |
| 2026-04-28 18:27 | 38.78574 | 17.67559 | 40423 ft | 336 kts | 247° |
| 2026-04-28 18:27 | 38.77482 | 17.64853 | 40066 ft | 348 kts | 247° |
| 2026-04-28 18:27 | 38.76361 | 17.62059 | 39868 ft | 355 kts | 247° |
| 2026-04-28 18:27 | 38.75243 | 17.59273 | 40107 ft | 347 kts | 247° |
| 2026-04-28 18:28 | 38.74153 | 17.56576 | 40264 ft | 338 kts | 247° |
| 2026-04-28 18:28 | 38.73068 | 17.53869 | 39462 ft | 348 kts | 249° |
| 2026-04-28 18:28 | 38.72062 | 17.50949 | 38172 ft | 369 kts | 251° |
| 2026-04-28 18:28 | 38.71064 | 17.47824 | 36706 ft | 390 kts | 251° |
| 2026-04-28 18:29 | 38.69977 | 17.44525 | 35325 ft | 413 kts | 249° |
| 2026-04-28 18:29 | 38.68771 | 17.41108 | 34615 ft | 429 kts | 248° |
| 2026-04-28 18:29 | 38.67462 | 17.37635 | 34304 ft | 437 kts | 246° |
| 2026-04-28 18:29 | 38.66087 | 17.34144 | 34110 ft | 440 kts | 246° |
| 2026-04-28 18:30 | 38.64683 | 17.30658 | 34077 ft | 442 kts | 245° |
| 2026-04-28 18:30 | 38.61870 | 17.23662 | 34084 ft | 442 kts | 246° |
| 2026-04-28 18:31 | 38.59092 | 17.16651 | 34082 ft | 442 kts | 246° |
| 2026-04-28 18:31 | 38.56799 | 17.10819 | 34081 ft | 442 kts | 246° |
| 2026-04-28 18:32 | 38.54037 | 17.03818 | 34083 ft | 441 kts | 246° |
| 2026-04-28 18:32 | 38.51268 | 16.96834 | 34077 ft | 441 kts | 246° |
| 2026-04-28 18:33 | 38.48493 | 16.89863 | 34077 ft | 440 kts | 246° |
| 2026-04-28 18:33 | 38.45721 | 16.82908 | 34075 ft | 439 kts | 246° |
| 2026-04-28 18:34 | 38.42945 | 16.75966 | 34075 ft | 439 kts | 246° |
| 2026-04-28 18:34 | 38.40163 | 16.69037 | 34070 ft | 439 kts | 246° |
| 2026-04-28 18:35 | 38.37385 | 16.62118 | 34071 ft | 438 kts | 246° |
| 2026-04-28 18:35 | 38.34612 | 16.55205 | 34076 ft | 438 kts | 246° |
| 2026-04-28 18:36 | 38.31828 | 16.48299 | 34072 ft | 438 kts | 246° |
| 2026-04-28 18:36 | 38.29038 | 16.41408 | 34078 ft | 438 kts | 246° |
| 2026-04-28 18:37 | 38.26249 | 16.34522 | 34074 ft | 438 kts | 246° |
| 2026-04-28 18:37 | 38.23462 | 16.27638 | 34076 ft | 438 kts | 246° |
| 2026-04-28 18:38 | 38.20668 | 16.20756 | 34079 ft | 438 kts | 246° |
| 2026-04-28 18:38 | 38.17872 | 16.13888 | 34081 ft | 438 kts | 246° |
| 2026-04-28 18:39 | 38.15067 | 16.07024 | 34082 ft | 438 kts | 246° |
| 2026-04-28 18:39 | 38.12258 | 16.00165 | 34079 ft | 438 kts | 246° |
| 2026-04-28 18:40 | 38.09443 | 15.93317 | 34080 ft | 438 kts | 246° |
| 2026-04-28 18:40 | 38.06624 | 15.86469 | 34080 ft | 437 kts | 246° |
| 2026-04-28 18:41 | 38.03813 | 15.79627 | 34076 ft | 437 kts | 246° |
| 2026-04-28 18:41 | 38.00998 | 15.72798 | 34079 ft | 437 kts | 246° |
| 2026-04-28 18:42 | 37.98170 | 15.65975 | 34068 ft | 437 kts | 245° |
| 2026-04-28 18:42 | 37.95342 | 15.59172 | 34076 ft | 436 kts | 245° |
| 2026-04-28 18:43 | 37.92518 | 15.52368 | 34069 ft | 436 kts | 246° |
| 2026-04-28 18:43 | 37.89693 | 15.45575 | 34076 ft | 436 kts | 245° |
| 2026-04-28 18:44 | 37.86860 | 15.38794 | 34079 ft | 436 kts | 245° |
| 2026-04-28 18:44 | 37.82603 | 15.28633 | 34091 ft | 435 kts | 245° |
| 2026-04-28 18:45 | 37.79770 | 15.21868 | 34096 ft | 435 kts | 245° |
| 2026-04-28 18:45 | 37.76935 | 15.15122 | 34098 ft | 434 kts | 245° |
| 2026-04-28 18:46 | 37.74100 | 15.08398 | 34093 ft | 434 kts | 245° |
| 2026-04-28 18:46 | 37.71261 | 15.01677 | 34090 ft | 433 kts | 246° |
| 2026-04-28 18:47 | 37.68425 | 14.94964 | 34097 ft | 433 kts | 245° |
| 2026-04-28 18:47 | 37.65583 | 14.88270 | 34105 ft | 432 kts | 245° |
| 2026-04-28 18:48 | 37.62741 | 14.81594 | 34086 ft | 432 kts | 245° |
| 2026-04-28 18:48 | 37.59901 | 14.74931 | 34086 ft | 431 kts | 245° |
| 2026-04-28 18:49 | 37.57543 | 14.69402 | 34085 ft | 430 kts | 245° |
| 2026-04-28 18:49 | 37.54230 | 14.61642 | 34091 ft | 430 kts | 245° |
| 2026-04-28 18:50 | 37.51391 | 14.55017 | 34091 ft | 430 kts | 245° |
| 2026-04-28 18:50 | 37.48550 | 14.48400 | 34098 ft | 429 kts | 245° |
| 2026-04-28 18:51 | 37.45709 | 14.41796 | 34101 ft | 429 kts | 244° |
| 2026-04-28 18:51 | 37.42858 | 14.35197 | 34101 ft | 429 kts | 244° |
| 2026-04-28 18:52 | 37.40016 | 14.28609 | 34092 ft | 428 kts | 244° |
| 2026-04-28 18:52 | 37.37172 | 14.22031 | 34087 ft | 428 kts | 244° |
| 2026-04-28 18:53 | 37.34315 | 14.15469 | 34089 ft | 428 kts | 244° |
| 2026-04-28 18:53 | 37.31468 | 14.08917 | 34096 ft | 427 kts | 244° |
| 2026-04-28 18:54 | 37.28623 | 14.02381 | 34075 ft | 426 kts | 244° |
| 2026-04-28 18:54 | 37.25777 | 13.95862 | 34076 ft | 426 kts | 244° |
| 2026-04-28 18:55 | 37.23391 | 13.90404 | 34079 ft | 425 kts | 244° |
| 2026-04-28 18:55 | 37.20058 | 13.82807 | 34092 ft | 425 kts | 244° |
| 2026-04-28 18:56 | 37.17209 | 13.76317 | 34084 ft | 424 kts | 244° |
| 2026-04-28 18:56 | 37.14362 | 13.69842 | 34081 ft | 424 kts | 244° |
| 2026-04-28 18:57 | 37.11890 | 13.63193 | 34068 ft | 419 kts | 255° |
| 2026-04-28 18:57 | 37.10324 | 13.56162 | 34080 ft | 419 kts | 255° |
| 2026-04-28 18:58 | 37.08742 | 13.49144 | 34071 ft | 418 kts | 255° |
| 2026-04-28 18:58 | 37.07160 | 13.42137 | 34070 ft | 418 kts | 255° |
| 2026-04-28 18:59 | 37.05592 | 13.35187 | 34071 ft | 417 kts | 255° |
| 2026-04-28 18:59 | 37.04008 | 13.28209 | 34065 ft | 417 kts | 255° |
| 2026-04-28 19:00 | 37.02429 | 13.21240 | 34065 ft | 416 kts | 255° |
| 2026-04-28 19:00 | 37.00841 | 13.14279 | 34064 ft | 416 kts | 255° |
| 2026-04-28 19:01 | 36.99253 | 13.07325 | 34065 ft | 415 kts | 255° |
| 2026-04-28 19:01 | 36.97659 | 13.00373 | 34049 ft | 418 kts | 255° |
| 2026-04-28 19:02 | 36.96038 | 12.93331 | 34043 ft | 419 kts | 255° |
| 2026-04-28 19:02 | 36.94422 | 12.86335 | 34049 ft | 419 kts | 255° |
| 2026-04-28 19:03 | 36.92805 | 12.79338 | 34055 ft | 419 kts | 255° |
| 2026-04-28 19:03 | 36.91182 | 12.72345 | 34049 ft | 419 kts | 255° |
| 2026-04-28 19:04 | 36.89559 | 12.65357 | 34046 ft | 419 kts | 255° |
| 2026-04-28 19:04 | 36.87929 | 12.58375 | 34039 ft | 419 kts | 255° |
| 2026-04-28 19:05 | 36.86289 | 12.51399 | 34040 ft | 419 kts | 255° |
| 2026-04-28 19:05 | 36.84646 | 12.44419 | 34040 ft | 419 kts | 255° |
| 2026-04-28 19:06 | 36.83279 | 12.38618 | 34041 ft | 419 kts | 255° |
| 2026-04-28 19:06 | 36.81355 | 12.30459 | 34030 ft | 419 kts | 255° |
| 2026-04-28 19:07 | 36.79706 | 12.23486 | 34037 ft | 419 kts | 255° |
| 2026-04-28 19:07 | 36.78048 | 12.16516 | 34038 ft | 419 kts | 255° |
| 2026-04-28 19:08 | 36.76387 | 12.09556 | 34026 ft | 418 kts | 255° |
| 2026-04-28 19:08 | 36.74731 | 12.02610 | 34023 ft | 418 kts | 255° |
| 2026-04-28 19:09 | 36.73068 | 11.95666 | 34035 ft | 418 kts | 255° |
| 2026-04-28 19:09 | 36.72192 | 11.88584 | 34027 ft | 416 kts | 272° |
| 2026-04-28 19:10 | 36.72531 | 11.81383 | 34020 ft | 417 kts | 273° |
| 2026-04-28 19:10 | 36.72828 | 11.75385 | 34025 ft | 417 kts | 273° |
| 2026-04-28 19:11 | 36.73174 | 11.68166 | 34019 ft | 417 kts | 272° |
| 2026-04-28 19:11 | 36.73506 | 11.60937 | 34022 ft | 418 kts | 272° |
| 2026-04-28 19:12 | 36.73836 | 11.53702 | 34021 ft | 418 kts | 272° |
| 2026-04-28 19:12 | 36.74163 | 11.46455 | 34026 ft | 419 kts | 272° |
| 2026-04-28 19:13 | 36.74485 | 11.39189 | 34027 ft | 420 kts | 272° |
| 2026-04-28 19:13 | 36.74798 | 11.31916 | 34027 ft | 421 kts | 272° |
| 2026-04-28 19:14 | 36.75118 | 11.24610 | 34000 ft | 424 kts | 272° |
| 2026-04-28 19:14 | 36.75433 | 11.17258 | 34002 ft | 425 kts | 271° |
| 2026-04-28 19:15 | 36.75748 | 11.09884 | 34012 ft | 426 kts | 272° |
| 2026-04-28 19:15 | 36.76004 | 11.03696 | 34011 ft | 427 kts | 271° |
| 2026-04-28 19:16 | 36.76356 | 10.95103 | 34011 ft | 427 kts | 271° |
| 2026-04-28 19:16 | 36.76652 | 10.87704 | 34011 ft | 427 kts | 271° |
| 2026-04-28 19:17 | 36.76938 | 10.80298 | 34010 ft | 428 kts | 271° |
| 2026-04-28 19:17 | 36.77217 | 10.72881 | 34010 ft | 428 kts | 271° |
| 2026-04-28 19:18 | 36.77495 | 10.65408 | 34005 ft | 429 kts | 271° |
| 2026-04-28 19:18 | 36.77777 | 10.57985 | 33994 ft | 429 kts | 271° |
| 2026-04-28 19:19 | 36.78060 | 10.50554 | 33987 ft | 429 kts | 271° |
| 2026-04-28 19:19 | 36.78343 | 10.43121 | 33972 ft | 429 kts | 271° |
| 2026-04-28 19:20 | 36.78616 | 10.35683 | 33963 ft | 429 kts | 271° |
| 2026-04-28 19:20 | 36.78872 | 10.28243 | 33957 ft | 429 kts | 271° |
| 2026-04-28 19:21 | 36.79128 | 10.20794 | 33956 ft | 430 kts | 271° |
| 2026-04-28 19:21 | 36.79382 | 10.13339 | 33956 ft | 430 kts | 271° |
| 2026-04-28 19:22 | 36.79590 | 10.07142 | 33964 ft | 431 kts | 271° |
| 2026-04-28 19:22 | 36.79883 | 9.98414 | 33973 ft | 431 kts | 271° |
| 2026-04-28 19:23 | 36.80121 | 9.90936 | 33981 ft | 431 kts | 271° |
| 2026-04-28 19:23 | 36.80350 | 9.83455 | 33989 ft | 432 kts | 271° |
| 2026-04-28 19:24 | 36.80580 | 9.75966 | 33993 ft | 432 kts | 271° |
| 2026-04-28 19:24 | 36.80807 | 9.68476 | 33987 ft | 432 kts | 271° |
| 2026-04-28 19:25 | 36.81028 | 9.61035 | 33988 ft | 432 kts | 271° |
| 2026-04-28 19:25 | 36.81248 | 9.53484 | 33985 ft | 432 kts | 271° |
| 2026-04-28 19:26 | 36.81460 | 9.45978 | 33981 ft | 433 kts | 271° |
| 2026-04-28 19:26 | 36.81666 | 9.38514 | 33979 ft | 433 kts | 271° |
| 2026-04-28 19:27 | 36.81874 | 9.30948 | 33975 ft | 433 kts | 271° |
| 2026-04-28 19:27 | 36.82076 | 9.23428 | 33957 ft | 434 kts | 271° |
| 2026-04-28 19:28 | 36.82270 | 9.15949 | 33946 ft | 434 kts | 271° |
| 2026-04-28 19:28 | 36.82457 | 9.08366 | 33930 ft | 434 kts | 271° |
| 2026-04-28 19:29 | 36.82610 | 9.02111 | 33920 ft | 434 kts | 271° |
| 2026-04-28 19:29 | 36.82913 | 8.97090 | 33898 ft | 436 kts | 282° |
| 2026-04-28 19:29 | 36.83936 | 8.93578 | 33899 ft | 438 kts | 292° |
| 2026-04-28 19:30 | 36.86597 | 8.86660 | 33893 ft | 440 kts | 293° |
| 2026-04-28 19:30 | 36.89126 | 8.79722 | 33898 ft | 436 kts | 282° |
| 2026-04-28 19:31 | 36.89417 | 8.76044 | 33894 ft | 431 kts | 264° |
| 2026-04-28 19:31 | 36.88701 | 8.72435 | 33893 ft | 430 kts | 246° |
| 2026-04-28 19:31 | 36.87075 | 8.69319 | 33888 ft | 432 kts | 228° |
| 2026-04-28 19:31 | 36.84944 | 8.66660 | 33891 ft | 433 kts | 230° |
| 2026-04-28 19:32 | 36.83301 | 8.63551 | 33893 ft | 429 kts | 248° |
| 2026-04-28 19:32 | 36.82515 | 8.59976 | 33902 ft | 429 kts | 263° |
| 2026-04-28 19:32 | 36.82694 | 8.52528 | 33915 ft | 432 kts | 275° |
| 2026-04-28 19:33 | 36.83364 | 8.45066 | 33915 ft | 432 kts | 270° |
| 2026-04-28 19:33 | 36.83525 | 8.37552 | 33911 ft | 433 kts | 270° |
| 2026-04-28 19:34 | 36.83616 | 8.30024 | 33910 ft | 434 kts | 269° |
| 2026-04-28 19:34 | 36.83694 | 8.22487 | 33909 ft | 434 kts | 269° |
| 2026-04-28 19:35 | 36.83776 | 8.14948 | 33901 ft | 434 kts | 269° |
| 2026-04-28 19:35 | 36.83870 | 8.07409 | 33897 ft | 434 kts | 269° |
| 2026-04-28 19:36 | 36.83973 | 7.99875 | 33888 ft | 434 kts | 269° |
| 2026-04-28 19:36 | 36.84058 | 7.92332 | 33883 ft | 435 kts | 269° |
| 2026-04-28 19:37 | 36.84119 | 7.86058 | 33880 ft | 435 kts | 269° |
| 2026-04-28 19:37 | 36.84191 | 7.77226 | 33880 ft | 436 kts | 269° |
| 2026-04-28 19:38 | 36.84255 | 7.69655 | 33883 ft | 436 kts | 269° |
| 2026-04-28 19:38 | 36.84322 | 7.62078 | 33881 ft | 437 kts | 268° |
| 2026-04-28 19:39 | 36.84386 | 7.54491 | 33896 ft | 437 kts | 268° |
| 2026-04-28 19:39 | 36.84436 | 7.46894 | 33905 ft | 438 kts | 268° |
| 2026-04-28 19:40 | 36.84482 | 7.39302 | 33910 ft | 438 kts | 268° |
| 2026-04-28 19:40 | 36.84526 | 7.31700 | 33916 ft | 438 kts | 268° |
| 2026-04-28 19:41 | 36.84557 | 7.24096 | 33917 ft | 438 kts | 268° |
| 2026-04-28 19:41 | 36.84589 | 7.16489 | 33919 ft | 439 kts | 268° |
| 2026-04-28 19:42 | 36.84626 | 7.08875 | 33920 ft | 439 kts | 268° |
| 2026-04-28 19:42 | 36.84647 | 7.02490 | 33924 ft | 439 kts | 268° |
| 2026-04-28 19:43 | 36.84665 | 6.93624 | 33920 ft | 439 kts | 268° |
| 2026-04-28 19:43 | 36.84677 | 6.86001 | 33923 ft | 439 kts | 268° |
| 2026-04-28 19:44 | 36.84685 | 6.78374 | 33925 ft | 439 kts | 268° |
| 2026-04-28 19:44 | 36.84692 | 6.70754 | 33920 ft | 440 kts | 268° |
| 2026-04-28 19:45 | 36.84689 | 6.63116 | 33922 ft | 440 kts | 268° |
| 2026-04-28 19:45 | 36.84683 | 6.55475 | 33918 ft | 440 kts | 268° |
| 2026-04-28 19:46 | 36.84674 | 6.47821 | 33917 ft | 441 kts | 268° |
| 2026-04-28 19:46 | 36.84659 | 6.40158 | 33916 ft | 442 kts | 268° |
| 2026-04-28 19:47 | 36.84640 | 6.32476 | 33915 ft | 443 kts | 268° |
| 2026-04-28 19:47 | 36.84605 | 6.24738 | 33909 ft | 443 kts | 268° |
| 2026-04-28 19:48 | 36.84568 | 6.17032 | 33912 ft | 443 kts | 268° |
| 2026-04-28 19:48 | 36.84533 | 6.09337 | 33910 ft | 443 kts | 268° |
| 2026-04-28 19:49 | 36.84506 | 6.02947 | 33913 ft | 443 kts | 268° |
| 2026-04-28 19:49 | 36.84454 | 5.95261 | 33913 ft | 442 kts | 268° |
| 2026-04-28 19:50 | 36.84375 | 5.82518 | 33913 ft | 441 kts | 268° |
| 2026-04-28 19:51 | 36.84341 | 5.76111 | 33913 ft | 440 kts | 268° |
| 2026-04-28 19:51 | 36.84285 | 5.68475 | 33915 ft | 439 kts | 268° |
| 2026-04-28 19:52 | 36.84213 | 5.60855 | 33914 ft | 439 kts | 268° |
| 2026-04-28 19:52 | 36.84141 | 5.53241 | 33919 ft | 438 kts | 268° |
| 2026-04-28 19:53 | 36.84067 | 5.45640 | 33920 ft | 438 kts | 268° |
| 2026-04-28 19:53 | 36.83988 | 5.38153 | 33905 ft | 428 kts | 268° |
| 2026-04-28 19:53 | 36.83947 | 5.34452 | 33576 ft | 425 kts | 267° |
| 2026-04-28 19:54 | 36.83906 | 5.30766 | 32755 ft | 425 kts | 267° |
| 2026-04-28 19:54 | 36.83863 | 5.27069 | 31906 ft | 427 kts | 267° |
| 2026-04-28 19:54 | 36.83818 | 5.23360 | 31061 ft | 428 kts | 266° |
| 2026-04-28 19:54 | 36.83773 | 5.19637 | 30212 ft | 430 kts | 266° |
| 2026-04-28 19:55 | 36.83727 | 5.15896 | 29237 ft | 432 kts | 266° |
| 2026-04-28 19:55 | 36.83681 | 5.12138 | 28150 ft | 435 kts | 266° |
| 2026-04-28 19:55 | 36.83630 | 5.08338 | 27019 ft | 440 kts | 266° |
| 2026-04-28 19:55 | 36.83575 | 5.04504 | 25878 ft | 445 kts | 267° |
| 2026-04-28 19:56 | 36.83519 | 5.00623 | 24701 ft | 450 kts | 267° |
| 2026-04-28 19:56 | 36.83463 | 4.96695 | 24052 ft | 456 kts | 267° |
| 2026-04-28 19:56 | 36.83406 | 4.92727 | 23560 ft | 458 kts | 267° |
| 2026-04-28 19:56 | 36.83349 | 4.88747 | 23034 ft | 458 kts | 267° |
| 2026-04-28 19:57 | 36.83290 | 4.84788 | 22500 ft | 455 kts | 267° |
| 2026-04-28 19:57 | 36.83228 | 4.80853 | 21972 ft | 452 kts | 267° |
| 2026-04-28 19:57 | 36.83165 | 4.76941 | 21456 ft | 449 kts | 267° |
| 2026-04-28 19:57 | 36.83102 | 4.73060 | 20945 ft | 446 kts | 267° |
| 2026-04-28 19:58 | 36.83039 | 4.69205 | 20438 ft | 443 kts | 267° |
| 2026-04-28 19:58 | 36.82975 | 4.65372 | 19955 ft | 440 kts | 267° |
| 2026-04-28 19:58 | 36.82908 | 4.61563 | 19471 ft | 438 kts | 267° |
| 2026-04-28 19:58 | 36.82844 | 4.57769 | 18997 ft | 436 kts | 267° |
| 2026-04-28 19:59 | 36.82781 | 4.54001 | 18530 ft | 433 kts | 267° |
| 2026-04-28 19:59 | 36.82716 | 4.50260 | 18048 ft | 430 kts | 267° |
| 2026-04-28 19:59 | 36.82648 | 4.46536 | 17493 ft | 426 kts | 267° |
| 2026-04-28 19:59 | 36.82577 | 4.42857 | 16785 ft | 422 kts | 267° |
| 2026-04-28 20:00 | 36.82503 | 4.39210 | 16089 ft | 419 kts | 267° |
| 2026-04-28 20:00 | 36.82429 | 4.35593 | 15399 ft | 415 kts | 267° |
| 2026-04-28 20:00 | 36.82357 | 4.32003 | 14716 ft | 412 kts | 267° |
| 2026-04-28 20:00 | 36.82286 | 4.28438 | 14043 ft | 409 kts | 267° |
| 2026-04-28 20:01 | 36.82215 | 4.24896 | 13371 ft | 407 kts | 267° |
| 2026-04-28 20:01 | 36.82143 | 4.21385 | 12689 ft | 403 kts | 267° |
| 2026-04-28 20:01 | 36.82073 | 4.17905 | 12011 ft | 399 kts | 267° |
| 2026-04-28 20:01 | 36.82001 | 4.14461 | 11359 ft | 395 kts | 267° |
| 2026-04-28 20:02 | 36.81930 | 4.11103 | 11205 ft | 378 kts | 267° |
| 2026-04-28 20:02 | 36.81862 | 4.07893 | 11071 ft | 362 kts | 267° |
| 2026-04-28 20:02 | 36.81794 | 4.04818 | 10948 ft | 347 kts | 267° |
| 2026-04-28 20:02 | 36.81727 | 4.01868 | 10832 ft | 333 kts | 267° |
| 2026-04-28 20:03 | 36.81660 | 3.99031 | 10712 ft | 321 kts | 267° |
| 2026-04-28 20:03 | 36.81598 | 3.96300 | 10586 ft | 309 kts | 266° |
| 2026-04-28 20:03 | 36.81538 | 3.93666 | 10469 ft | 298 kts | 266° |
| 2026-04-28 20:03 | 36.81479 | 3.91116 | 10312 ft | 290 kts | 266° |
| 2026-04-28 20:04 | 36.81420 | 3.88615 | 10028 ft | 287 kts | 266° |
| 2026-04-28 20:04 | 36.81362 | 3.86132 | 9697 ft | 286 kts | 266° |
| 2026-04-28 20:04 | 36.81304 | 3.83662 | 9351 ft | 284 kts | 266° |
| 2026-04-28 20:04 | 36.81244 | 3.81202 | 8991 ft | 283 kts | 266° |
| 2026-04-28 20:05 | 36.81185 | 3.78728 | 8638 ft | 281 kts | 266° |
| 2026-04-28 20:05 | 36.81129 | 3.76334 | 8309 ft | 278 kts | 266° |
| 2026-04-28 20:05 | 36.81071 | 3.73920 | 8109 ft | 279 kts | 266° |
| 2026-04-28 20:05 | 36.81012 | 3.71474 | 7908 ft | 278 kts | 265° |
| 2026-04-28 20:06 | 36.80953 | 3.69070 | 7710 ft | 277 kts | 265° |
| 2026-04-28 20:06 | 36.80892 | 3.66671 | 7518 ft | 276 kts | 265° |
| 2026-04-28 20:06 | 36.80830 | 3.64279 | 7323 ft | 275 kts | 265° |
| 2026-04-28 20:06 | 36.80767 | 3.61896 | 7138 ft | 275 kts | 265° |
| 2026-04-28 20:07 | 36.80704 | 3.59525 | 6825 ft | 272 kts | 265° |
| 2026-04-28 20:07 | 36.80663 | 3.57966 | 6571 ft | 271 kts | 265° |
| 2026-04-28 20:07 | 36.80583 | 3.54826 | 6076 ft | 269 kts | 265° |
| 2026-04-28 20:07 | 36.80523 | 3.52506 | 5815 ft | 263 kts | 265° |
| 2026-04-28 20:08 | 36.80465 | 3.50276 | 5697 ft | 251 kts | 265° |
| 2026-04-28 20:08 | 36.80411 | 3.48145 | 5581 ft | 240 kts | 265° |
| 2026-04-28 20:08 | 36.80355 | 3.46075 | 5246 ft | 241 kts | 264° |
| 2026-04-28 20:08 | 36.80297 | 3.43981 | 4804 ft | 241 kts | 264° |
| 2026-04-28 20:09 | 36.80238 | 3.41897 | 4275 ft | 240 kts | 264° |
| 2026-04-28 20:09 | 36.80090 | 3.39858 | 3992 ft | 228 kts | 262° |
| 2026-04-28 20:09 | 36.80350 | 3.37970 | 3860 ft | 221 kts | 294° |
| 2026-04-28 20:09 | 36.81402 | 3.36622 | 3770 ft | 217 kts | 329° |
| 2026-04-28 20:10 | 36.82818 | 3.36277 | 3636 ft | 210 kts | 7° |
| 2026-04-28 20:10 | 36.84087 | 3.37012 | 3499 ft | 198 kts | 48° |
| 2026-04-28 20:10 | 36.84664 | 3.38442 | 3382 ft | 178 kts | 90° |
| 2026-04-28 20:10 | 36.84354 | 3.39820 | 3252 ft | 156 kts | 135° |
| 2026-04-28 20:11 | 36.83587 | 3.40649 | 3111 ft | 141 kts | 155° |
| 2026-04-28 20:11 | 36.82698 | 3.41049 | 2833 ft | 137 kts | 173° |
| 2026-04-28 20:11 | 36.81745 | 3.41027 | 2522 ft | 138 kts | 192° |
| 2026-04-28 20:11 | 36.80859 | 3.40567 | 2296 ft | 139 kts | 212° |
| 2026-04-28 20:12 | 36.80156 | 3.39728 | 2276 ft | 141 kts | 230° |
| 2026-04-28 20:12 | 36.79561 | 3.38747 | 2285 ft | 142 kts | 230° |
| 2026-04-28 20:12 | 36.78966 | 3.37767 | 2285 ft | 141 kts | 229° |
| 2026-04-28 20:12 | 36.78564 | 3.37105 | 2284 ft | 142 kts | 229° |
| 2026-04-28 20:13 | 36.77772 | 3.35801 | 2184 ft | 143 kts | 230° |
| 2026-04-28 20:13 | 36.77174 | 3.34816 | 2039 ft | 143 kts | 230° |
| 2026-04-28 20:13 | 36.76572 | 3.33825 | 1868 ft | 144 kts | 230° |
| 2026-04-28 20:13 | 36.75958 | 3.32815 | 1702 ft | 145 kts | 230° |
| 2026-04-28 20:14 | 36.75349 | 3.31813 | 1511 ft | 145 kts | 231° |
| 2026-04-28 20:14 | 36.74748 | 3.30826 | 1328 ft | 145 kts | 231° |
| 2026-04-28 20:14 | 36.74141 | 3.29827 | 1141 ft | 144 kts | 231° |
| 2026-04-28 20:14 | 36.73539 | 3.28838 | 919 ft | 142 kts | 232° |
| 2026-04-28 20:15 | 36.72947 | 3.27865 | 723 ft | 140 kts | 232° |
| 2026-04-28 20:15 | 36.72361 | 3.26904 | 508 ft | 139 kts | 233° |
| 2026-04-28 20:15 | 36.71784 | 3.25937 | 314 ft | 138 kts | 232° |
| 2026-04-28 20:15 | 36.71198 | 3.24987 | 122 ft | 138 kts | 232° |
| 2026-04-28 20:16 | 36.70649 | 3.24093 | 91 ft | 115 kts | 232° |
| 2026-04-28 20:16 | 36.70272 | 3.23474 | 85 ft | 61 kts | 232° |
| 2026-04-28 20:16 | 36.70129 | 3.23045 | 82 ft | 50 kts | 262° |
| 2026-04-28 20:16 | 36.70098 | 3.22727 | 81 ft | 29 kts | 263° |
| 2026-04-28 20:17 | 36.70041 | 3.22538 | 86 ft | 24 kts | 234° |
| 2026-04-28 20:17 | 36.69936 | 3.22368 | 82 ft | 25 kts | 232° |
| 2026-04-28 20:17 | 36.69847 | 3.22222 | 81 ft | 21 kts | 234° |
| 2026-04-28 20:17 | 36.69756 | 3.22071 | 84 ft | 22 kts | 232° |
| 2026-04-28 20:18 | 36.69665 | 3.21925 | 72 ft | 20 kts | 232° |
| 2026-04-28 20:18 | 36.69607 | 3.21829 | 72 ft | 22 kts | 233° |
| 2026-04-28 20:18 | 36.69495 | 3.21646 | 73 ft | 19 kts | 232° |
| 2026-04-28 20:18 | 36.69409 | 3.21508 | 71 ft | 21 kts | 232° |
| 2026-04-28 20:19 | 36.69316 | 3.21356 | 73 ft | 23 kts | 229° |
| 2026-04-28 20:19 | 36.69273 | 3.21211 | 73 ft | 17 kts | 266° |
| 2026-04-28 20:19 | 36.69279 | 3.21058 | 68 ft | 18 kts | 273° |
| 2026-04-28 20:19 | 36.69305 | 3.20920 | 70 ft | 16 kts | 316° |
| 2026-04-28 20:20 | 36.69411 | 3.20870 | 74 ft | 17 kts | 342° |
| 2026-04-28 20:20 | 36.69518 | 3.20831 | 71 ft | 15 kts | 349° |
| 2026-04-28 20:20 | 36.69614 | 3.20821 | 75 ft | 8 kts | 1° |
| 2026-04-28 20:20 | 36.69662 | 3.20826 | 72 ft | 5 kts | 5° |
| 2026-04-28 20:21 | 36.69677 | 3.20828 | 72 ft | 0 kts | 5° |